Flight Track Log - Related Links

Times and Time Zones

All times are in EDT time to prevent confusion due to time zone crossing. See the N258JC flight status page for this flight to view local times or setup timezone preferences in your user account.


Time Position Orientation Groundspeed Altitude Reporting Facility
EDT Latitude Longitude Course Direction KTS MPH feet Rate Location/Type
Thu 06:32:53 PM 30.3303 -95.4022 62° Northeast 127 146 900  Level Houston Center
Thu 06:34:01 PM 30.3478 -95.3644 North 187 215 2,100 821 Climbing Houston Center
Thu 06:34:50 PM 30.3856 -95.3636 North 195 224 2,500 550 Climbing Houston Center
Thu 06:35:50 PM 30.4442 -95.3583 North 195 224 3,100 750 Climbing Houston Center
Thu 06:36:50 PM 30.5006 -95.3556 360° North 200 230 4,000 850 Climbing Houston Center
Thu 06:37:50 PM 30.5569 -95.3553 360° North 200 230 4,800 750 Climbing Houston Center
Thu 06:38:50 PM 30.6131 -95.3550 North 200 230 5,500 650 Climbing Houston Center
Thu 06:39:50 PM 30.6758 -95.3500 356° North 200 230 6,100 900 Climbing Houston Center
Thu 06:40:50 PM 30.7258 -95.3542 331° Northwest 200 230 7,300 850 Climbing Houston Center
Thu 06:41:50 PM 30.7731 -95.3850 346° North 188 216 7,800 450 Climbing Houston Center
Thu 06:42:50 PM 30.8289 -95.4014 339° North 193 222 8,200 450 Climbing Houston Center
Thu 06:43:50 PM 30.8825 -95.4253 333° Northwest 198 228 8,700 450 Climbing Houston Center
Thu 06:44:50 PM 30.9336 -95.4561 325° Northwest 203 234 9,100 400 Climbing Houston Center
Thu 06:45:50 PM 30.9806 -95.4942 326° Northwest 203 234 9,500 267 Climbing Houston Center
Thu 06:47:50 PM 31.0764 -95.5706 323° Northwest 208 239 9,900 171 Climbing Houston Center
Thu 06:48:45 PM 31.1317 -95.6200 326° Northwest 213 245 10,000  Climbing Fort Worth Center
Thu 06:49:45 PM 31.1761 -95.6556 329° Northwest 226 260 9,900 -50 Descending Fort Worth Center
Thu 06:50:45 PM 31.2267 -95.6908 315° West 220 253 9,900  Level Fort Worth Center
Thu 06:51:45 PM 31.2692 -95.7411 309° West 215 247 9,900  Level Fort Worth Center
Thu 06:52:45 PM 31.3053 -95.7942 306° West 210 242 9,900  Level Fort Worth Center
Thu 06:53:45 PM 31.3394 -95.8494 291° West 210 242 9,900  Level Fort Worth Center
Thu 06:54:45 PM 31.3589 -95.9100 284° West 203 234 9,900  Level Fort Worth Center
Thu 06:55:45 PM 31.3722 -95.9731 282° West 203 234 9,900  Level Fort Worth Center
Thu 06:56:45 PM 31.3833 -96.0361 277° West 197 227 9,900  Level Fort Worth Center
Thu 06:57:45 PM 31.3903 -96.0992 279° West 197 227 9,900  Level Fort Worth Center
Thu 06:58:45 PM 31.3992 -96.1647 275° West 197 227 9,900  Level Fort Worth Center
Thu 06:59:45 PM 31.4042 -96.2328 285° West 197 227 9,900 50 Level Fort Worth Center
Thu 07:00:45 PM 31.4192 -96.2983 279° West 204 235 10,000 50 Climbing Fort Worth Center
Thu 07:01:45 PM 31.4281 -96.3617 277° West 204 235 10,000  Level Fort Worth Center
Thu 07:02:45 PM 31.4350 -96.4247 264° West 199 229 10,000  Level Fort Worth Center
Thu 07:03:45 PM 31.4292 -96.4906 263° West 199 229 10,000  Level Fort Worth Center
Thu 07:04:45 PM 31.4233 -96.5492 260° West 194 223 10,000  Level Fort Worth Center
Thu 07:05:45 PM 31.4153 -96.6053 259° West 194 223 10,000  Level Fort Worth Center
Thu 07:06:45 PM 31.4053 -96.6661 259° West 194 223 10,000  Level Fort Worth Center
Thu 07:07:45 PM 31.3953 -96.7247 246° West 194 223 10,000  Level Fort Worth Center
Thu 07:08:45 PM 31.3786 -96.7686 235° Southwest 194 223 10,000  Level Fort Worth Center
Thu 07:09:45 PM 31.3433 -96.8272 233° Southwest 188 216 10,000  Level Fort Worth Center
Thu 07:10:45 PM 31.3122 -96.8758 234° Southwest 188 216 10,000  Level Fort Worth Center
Thu 07:11:21 PM 31.2894 -96.9125 225° Southwest 187 215 10,000  Level Fort Worth Center
Thu 07:12:27 PM 31.2458 -96.9639 230° Southwest 191 220 10,000  Level Fort Worth Center
Thu 07:13:28 PM 31.2147 -97.0078 228° Southwest 189 217 10,000  Level Fort Worth Center
Thu 07:14:29 PM 31.1772 -97.0564 228° Southwest 187 215 10,000  Level Fort Worth Center
Thu 07:15:29 PM 31.1439 -97.1003 228° Southwest 188 216 10,000 -397 Level Fort Worth Center
Thu 07:16:30 PM 31.1064 -97.1489 231° Southwest 195 224 9,200 -738 Descending Fort Worth Center
Thu 07:17:31 PM 31.0711 -97.2000 231° Southwest 202 232 8,500 -933 Descending Fort Worth Center
Thu 07:18:45 PM 31.0294 -97.2606 235° Southwest 199 229 7,100 -1,134 Descending Fort Worth Center
Thu 07:19:38 PM 31.0003 -97.3092 230° Southwest 196 226 6,100 -1,100 Descending Fort Worth Center
Thu 07:20:45 PM 30.9606 -97.3650 232° Southwest 199 229 4,900 -887 Descending Fort Worth Center
Thu 07:21:33 PM 30.9314 -97.4086 242° Southwest 201 231 4,400 -450 Descending Fort Worth Center
Thu 07:22:45 PM 30.9042 -97.4689 261° West 199 229 4,000 -136 Descending Fort Worth Center
Thu 07:23:45 PM 30.8958 -97.5319 261° West 194 223 4,100 50 Climbing Fort Worth Center
Thu 07:24:45 PM 30.8875 -97.5925 259° West 199 229 4,100 -50 Level Fort Worth Center
Thu 07:25:45 PM 30.8769 -97.6553 262° West 204 235 4,000  Descending Fort Worth Center
Thu 07:26:45 PM 30.8683 -97.7231 255° West 204 235 4,100 50 Climbing Fort Worth Center
Thu 07:27:45 PM 30.8558 -97.7786 237° Southwest 204 235 4,100 -200 Level Fort Worth Center
Thu 07:28:45 PM 30.8264 -97.8319 207° Southwest 193 222 3,700 -450 Descending Fort Worth Center
Thu 07:29:45 PM 30.7867 -97.8558 151° Southeast 175 201 3,200 -600 Descending Fort Worth Center
Thu 07:30:45 PM 30.7492 -97.8314 126° Southeast 145 167 2,500 -400 Descending Fort Worth Center
Thu 07:31:45 PM 30.7283 -97.7975 118° Southeast 119 137 2,400 -200 Descending Fort Worth Center
Thu 07:32:45 PM 30.7139 -97.7661 118° Southeast 112 129 2,100 -300 Descending Fort Worth Center

Login

Don't have an account? Register now (free) for customized features, flight alerts, and more!